Time;durP1;ratioP1;P1;durP2;ratioP2;P2;SDS_P1;SDS_P2;PMS_P1;PMS_P2;Temp;Humidity;BMP_temperature;BMP_pressure;BME280_temperature;BME280_humidity;BME280_pressure;Samples;Min_cycle;Max_cycle;Signal;HPM_P1;HPM_P2
2023/03/08 00:05:55;;;;;;;20.90;12.30;;;;;;;3.54;77.98;96707.13;436966;1256;99208;-41
2023/03/08 00:26:07;;;;;;;17.30;10.50;;;;;;;3.45;78.28;96707.61;438528;1256;98032;-39
2023/03/08 00:36:13;;;;;;;20.40;12.60;;;;;;;3.33;78.30;96716.31;436402;1256;111705;-40
2023/03/08 00:46:20;;;;;;;19.10;12.40;;;;;;;3.16;78.47;96715.44;436504;1256;107848;-39
2023/03/08 00:56:27;;;;;;;14.10;10.20;;;;;;;3.07;78.57;96714.30;435990;1256;98871;-40
2023/03/08 01:06:34;;;;;;;15.50;10.50;;;;;;;3.07;78.63;96712.12;437054;1253;108113;-40
2023/03/08 01:16:42;;;;;;;19.20;11.10;;;;;;;3.15;78.92;96708.74;437460;1256;99291;-40
2023/03/08 01:26:49;;;;;;;27.00;16.40;;;;;;;3.20;79.08;96696.98;437798;1256;111557;-40
2023/03/08 01:36:56;;;;;;;35.20;20.80;;;;;;;3.07;79.13;96697.80;435208;1253;108465;-40
2023/03/08 01:47:03;;;;;;;34.80;18.80;;;;;;;2.90;79.30;96701.80;435126;1254;98269;-41
2023/03/08 01:57:08;;;;;;;27.70;15.50;;;;;;;2.86;79.64;96694.64;435172;1254;111235;-40
2023/03/08 02:07:15;;;;;;;22.00;13.70;;;;;;;2.85;79.89;96691.53;435115;1257;107754;-40
2023/03/08 02:17:23;;;;;;;18.00;12.40;;;;;;;2.81;80.10;96702.75;435090;1257;98015;-39
2023/03/08 02:27:31;;;;;;;17.60;11.50;;;;;;;2.77;80.35;96718.87;435835;1255;108236;-39
2023/03/08 02:37:38;;;;;;;27.00;15.10;;;;;;;2.71;80.58;96744.79;435042;1256;99244;-39
2023/03/08 02:47:46;;;;;;;26.80;13.30;;;;;;;2.53;81.17;96757.60;435153;1253;110623;-40
2023/03/08 02:57:53;;;;;;;21.60;12.10;;;;;;;2.40;81.23;96768.34;435047;1256;109273;-40
2023/03/08 03:08:00;;;;;;;16.70;10.80;;;;;;;2.30;81.29;96777.84;435049;1254;99230;-40
2023/03/08 03:18:07;;;;;;;14.60;10.70;;;;;;;2.30;81.43;96793.73;435122;1254;107759;-39
2023/03/08 03:28:14;;;;;;;19.00;11.90;;;;;;;2.30;81.42;96808.85;435157;1255;98015;-40
2023/03/08 03:38:21;;;;;;;25.50;14.70;;;;;;;2.24;81.52;96819.20;434990;1256;312489;-41
2023/03/08 03:48:29;;;;;;;21.70;13.30;;;;;;;2.12;81.69;96829.23;435112;1254;107866;-39
2023/03/08 03:58:37;;;;;;;20.60;13.60;;;;;;;2.02;81.74;96843.18;435152;1257;98840;-39
2023/03/08 04:08:45;;;;;;;9.90;6.90;;;;;;;1.70;82.20;96867.87;436412;1254;111254;-39
2023/03/08 04:39:08;;;;;;;4.20;2.20;;;;;;;0.74;84.01;96915.50;435082;1254;109976;-39
2023/03/08 04:49:16;;;;;;;9.20;4.60;;;;;;;0.60;83.78;96934.27;435020;1254;99244;-40
2023/03/08 04:59:24;;;;;;;9.10;3.40;;;;;;;0.47;83.94;96944.56;435151;1256;110603;-40
2023/03/08 05:09:31;;;;;;;18.50;7.80;;;;;;;0.31;83.86;96950.84;435232;1257;111805;-40
2023/03/08 05:19:38;;;;;;;12.80;6.00;;;;;;;0.28;83.64;96959.09;435274;1254;99231;-40
2023/03/08 05:29:44;;;;;;;11.50;6.00;;;;;;;0.27;83.67;96962.77;435183;1256;111084;-43
2023/03/08 05:39:51;;;;;;;16.00;6.10;;;;;;;0.29;83.57;96978.27;435093;1257;107125;-40
2023/03/08 05:49:58;;;;;;;8.60;4.60;;;;;;;0.32;83.71;96990.42;435349;1254;97956;-41
2023/03/08 06:00:07;;;;;;;20.70;10.80;;;;;;;0.35;83.83;96997.13;435177;1254;106726;-40
2023/03/08 06:10:13;;;;;;;20.40;8.40;;;;;;;0.34;83.77;97016.73;436784;1255;98370;-40
2023/03/08 06:20:21;;;;;;;7.90;4.80;;;;;;;0.37;83.80;97023.05;438948;1256;98715;-39
2023/03/08 06:30:28;;;;;;;8.70;4.80;;;;;;;0.45;83.58;97035.82;435949;1257;113267;-40
2023/03/08 06:40:35;;;;;;;11.00;5.70;;;;;;;0.56;83.46;97057.84;437134;1254;108527;-40
2023/03/08 06:50:41;;;;;;;9.50;5.40;;;;;;;0.77;83.53;97066.34;435197;1257;98917;-41
2023/03/08 07:10:55;;;;;;;13.50;8.80;;;;;;;1.21;83.65;97076.02;435140;1257;99257;-41
2023/03/08 07:21:02;;;;;;;10.80;6.10;;;;;;;1.31;83.46;97084.98;435179;1256;110636;-40
2023/03/08 07:31:11;;;;;;;12.80;6.80;;;;;;;1.45;83.31;97092.08;436660;1256;107880;-41
2023/03/08 07:41:19;;;;;;;14.00;6.50;;;;;;;1.51;83.04;97109.79;435197;1255;99247;-39
2023/03/08 07:51:26;;;;;;;11.40;7.30;;;;;;;1.63;82.97;97122.50;435278;1253;112355;-40
2023/03/08 08:01:33;;;;;;;13.50;6.70;;;;;;;2.09;83.35;97130.05;435322;1253;106877;-42
2023/03/08 08:11:41;;;;;;;12.00;6.30;;;;;;;2.43;82.99;97144.22;435230;1256;99225;-40
2023/03/08 08:21:48;;;;;;;10.30;6.00;;;;;;;2.37;82.68;97147.00;435237;1257;111790;-39
2023/03/08 08:31:55;;;;;;;6.50;3.40;;;;;;;2.29;82.55;97139.64;435184;1256;107545;-40
2023/03/08 08:42:03;;;;;;;4.20;2.70;;;;;;;2.60;82.65;97132.03;435239;1253;99225;-40
2023/03/08 08:52:10;;;;;;;5.30;4.00;;;;;;;2.95;82.37;97128.86;435272;1254;110978;-40
2023/03/08 09:02:17;;;;;;;4.80;2.50;;;;;;;3.08;82.32;97130.95;435182;1254;108461;-41
2023/03/08 09:12:25;;;;;;;5.90;3.70;;;;;;;3.08;81.76;97126.64;435338;1256;99267;-41
2023/03/08 09:22:32;;;;;;;4.10;3.00;;;;;;;2.98;81.58;97127.41;435184;1256;111888;-41
2023/03/08 09:32:39;;;;;;;4.30;2.10;;;;;;;3.13;81.20;97144.45;435111;1252;108273;-39
2023/03/08 09:42:46;;;;;;;3.70;2.10;;;;;;;3.34;81.12;97157.10;435237;1254;98040;-40
2023/03/08 09:52:59;;;;;;;4.40;3.20;;;;;;;3.40;80.99;97158.00;435238;1256;106700;-40
2023/03/08 10:03:29;;;;;;;5.10;4.00;;;;;;;3.32;80.94;97148.65;435212;1256;99102;-41
2023/03/08 10:13:37;;;;;;;9.20;4.70;;;;;;;3.81;81.05;97122.46;435249;1253;111211;-39
2023/03/08 10:23:46;;;;;;;6.80;5.20;;;;;;;4.02;80.60;97100.48;435324;1256;108313;-41
2023/03/08 10:33:53;;;;;;;9.20;4.20;;;;;;;4.32;80.47;97094.48;435222;1253;97971;-40
2023/03/08 10:44:00;;;;;;;10.20;6.00;;;;;;;4.92;80.35;97089.65;435280;1256;111459;-40
2023/03/08 10:54:12;;;;;;;10.90;7.40;;;;;;;5.14;80.01;97081.92;435160;1256;107985;-39
2023/03/08 11:04:21;;;;;;;9.70;6.60;;;;;;;5.03;79.78;97078.65;435289;1256;99247;-40
2023/03/08 11:14:29;;;;;;;7.40;5.50;;;;;;;4.93;79.46;97069.50;435404;1252;107173;-41
2023/03/08 11:34:47;;;;;;;12.60;9.00;;;;;;;4.21;79.24;97054.20;435359;1256;110603;-38
2023/03/08 11:45:06;;;;;;;12.10;5.80;;;;;;;4.36;79.17;97044.27;435218;1256;108544;-40
2023/03/08 12:05:23;;;;;;;13.90;7.50;;;;;;;4.35;78.82;97028.09;435359;1256;106099;-42
2023/03/08 12:15:32;;;;;;;9.70;6.80;;;;;;;4.61;78.85;97023.13;435249;1253;99296;-43
2023/03/08 12:25:40;;;;;;;13.00;8.50;;;;;;;4.81;78.51;97008.09;435239;1253;112348;-40
2023/03/08 12:35:52;;;;;;;11.30;7.80;;;;;;;4.96;78.45;96983.70;435085;1256;107001;-40
2023/03/08 12:46:02;;;;;;;14.90;8.10;;;;;;;5.09;78.06;96980.05;435245;1256;98831;-40
2023/03/08 12:56:22;;;;;;;14.40;8.70;;;;;;;5.39;77.94;96973.10;436120;1252;111497;-40
2023/03/08 13:16:40;;;;;;;20.40;11.50;;;;;;;5.63;76.99;96943.38;435947;1253;98019;-39
2023/03/08 13:47:15;;;;;;;25.10;13.30;;;;;;;5.56;76.78;96903.01;435135;1256;97991;-40
2023/03/08 13:57:21;;;;;;;26.90;13.60;;;;;;;5.34;76.56;96883.86;435174;1256;112432;-40
2023/03/08 14:07:30;;;;;;;26.20;13.80;;;;;;;5.24;76.56;96866.57;435927;1254;107527;-41
2023/03/08 14:17:41;;;;;;;22.80;13.90;;;;;;;5.20;76.47;96851.30;435491;1256;99235;-41
2023/03/08 14:27:47;;;;;;;26.80;14.30;;;;;;;5.11;76.40;96843.02;435234;1256;110436;-40
2023/03/08 14:48:03;;;;;;;25.90;13.50;;;;;;;4.96;75.82;96809.67;436666;1253;99221;-40
2023/03/08 14:58:11;;;;;;;39.60;19.30;;;;;;;4.91;75.89;96786.34;435305;1256;108983;-42
2023/03/08 15:08:19;;;;;;;32.70;19.90;;;;;;;4.83;76.01;96761.45;435210;1253;97982;-40
2023/03/08 15:18:27;;;;;;;34.00;16.80;;;;;;;4.74;75.99;96742.73;435241;1256;111853;-41
2023/03/08 15:28:34;;;;;;;26.90;15.50;;;;;;;4.63;75.98;96733.38;435866;1256;108355;-40
2023/03/08 15:38:41;;;;;;;23.10;12.50;;;;;;;4.54;75.91;96717.55;432934;1256;3171855;-39
2023/03/08 15:48:49;;;;;;;23.70;13.60;;;;;;;4.44;76.17;96709.30;436154;1256;107518;-39
2023/03/08 15:59:00;;;;;;;44.30;22.60;;;;;;;4.30;76.65;96704.02;438543;1256;99191;-41
2023/03/08 16:09:07;;;;;;;40.40;21.30;;;;;;;4.24;76.93;96714.58;437447;1253;111640;-41
2023/03/08 16:19:14;;;;;;;43.70;23.30;;;;;;;4.27;77.22;96725.67;437190;1252;107866;-41
2023/03/08 16:29:22;;;;;;;26.50;14.80;;;;;;;4.38;77.25;96732.98;435298;1253;98836;-40
2023/03/08 16:39:30;;;;;;;23.30;13.60;;;;;;;4.40;77.37;96742.48;435340;1256;113862;-39
2023/03/08 16:49:37;;;;;;;17.40;10.70;;;;;;;4.30;77.69;96755.87;435891;1253;107637;-40
2023/03/08 16:59:44;;;;;;;25.30;13.80;;;;;;;4.14;78.13;96760.85;435839;1256;99221;-41
2023/03/08 17:09:51;;;;;;;26.10;15.30;;;;;;;3.90;78.36;96767.05;437312;1256;107725;-39
2023/03/08 17:19:59;;;;;;;28.00;15.00;;;;;;;3.71;78.59;96754.20;439037;1252;97965;-40
2023/03/08 17:30:12;;;;;;;24.40;15.80;;;;;;;3.63;78.80;96744.79;436669;1256;109940;-41
2023/03/08 17:40:18;;;;;;;22.20;15.50;;;;;;;3.55;79.18;96718.43;438286;1253;107374;-39
2023/03/08 17:50:26;;;;;;;24.50;14.80;;;;;;;3.34;79.26;96708.81;437701;1256;98808;-39
2023/03/08 18:00:32;;;;;;;28.10;15.70;;;;;;;2.90;79.63;96696.29;437084;1256;108803;-40
2023/03/08 18:10:39;;;;;;;25.00;15.70;;;;;;;2.68;79.90;96676.08;435181;1256;98852;-41
2023/03/08 18:20:46;;;;;;;25.90;14.50;;;;;;;2.56;80.15;96667.80;435170;1256;112045;-40
2023/03/08 18:30:53;;;;;;;28.40;16.10;;;;;;;2.46;80.50;96648.86;435047;1253;108220;-41
2023/03/08 18:41:10;;;;;;;32.90;20.10;;;;;;;2.32;80.92;96626.62;435224;1253;98026;-39
2023/03/08 18:51:17;;;;;;;30.10;18.70;;;;;;;2.28;81.21;96606.61;435902;1254;108506;-39
2023/03/08 19:01:27;;;;;;;46.00;26.20;;;;;;;2.29;81.52;96588.16;437306;1254;99224;-40
2023/03/08 19:11:32;;;;;;;40.10;24.80;;;;;;;2.32;81.69;96560.27;435454;1256;111258;-40
2023/03/08 19:31:48;;;;;;;44.60;27.20;;;;;;;2.34;82.68;96518.39;435272;1253;99257;-39
2023/03/08 19:41:57;;;;;;;46.30;26.70;;;;;;;2.35;82.89;96511.77;436253;1253;108066;-41
2023/03/08 19:52:07;;;;;;;42.90;27.70;;;;;;;2.43;83.18;96504.70;435523;1256;99265;-40
2023/03/08 20:02:15;;;;;;;61.90;33.70;;;;;;;2.48;83.41;96480.60;435220;1256;112417;-39
2023/03/08 20:12:22;;;;;;;54.60;34.70;;;;;;;2.53;83.72;96458.35;435078;1256;108417;-41
2023/03/08 20:22:30;;;;;;;51.70;30.90;;;;;;;2.60;84.03;96445.14;435114;1253;99336;-40
2023/03/08 20:32:36;;;;;;;46.60;28.70;;;;;;;2.64;84.26;96446.27;435066;1256;107775;-39
2023/03/08 20:42:44;;;;;;;51.80;30.10;;;;;;;2.70;84.61;96439.34;437992;1256;99112;-40
2023/03/08 20:52:51;;;;;;;61.80;32.60;;;;;;;2.78;84.84;96431.17;439336;1253;111357;-40
2023/03/08 21:02:58;;;;;;;50.50;30.30;;;;;;;2.83;85.03;96426.13;438573;1254;108608;-39
2023/03/08 21:13:11;;;;;;;65.90;36.80;;;;;;;2.87;85.12;96420.40;438751;1256;98696;-40
2023/03/08 21:23:21;;;;;;;65.10;36.50;;;;;;;2.88;85.32;96409.86;438663;1252;107980;-41
2023/03/08 21:33:28;;;;;;;68.60;39.10;;;;;;;2.92;85.36;96409.40;438509;1256;99269;-40
2023/03/08 21:43:36;;;;;;;72.40;38.50;;;;;;;2.95;85.53;96393.84;438640;1252;111801;-40
2023/03/08 21:53:43;;;;;;;67.90;39.50;;;;;;;3.00;85.70;96380.29;438691;1253;107627;-40
2023/03/08 22:03:51;;;;;;;71.40;42.70;;;;;;;3.09;85.85;96378.32;438469;1256;99221;-40
2023/03/08 22:14:00;;;;;;;74.40;42.50;;;;;;;3.19;85.87;96375.75;438758;1256;107736;-40
2023/03/08 22:24:05;;;;;;;;;;;;;;;3.35;86.19;96371.02;438407;1256;98322;-41
2023/03/08 22:34:13;;;;;;;53.60;30.50;;;;;;;3.59;86.32;96366.15;438481;1253;111654;-40
2023/03/08 22:44:21;;;;;;;53.00;29.40;;;;;;;3.84;86.52;96366.69;438768;1257;108280;-40
2023/03/08 22:54:28;;;;;;;49.30;25.40;;;;;;;3.95;86.66;96376.45;438567;1257;99139;-41
2023/03/08 23:04:36;;;;;;;38.80;22.30;;;;;;;4.08;86.53;96381.23;438761;1254;111097;-40
2023/03/08 23:26:23;;;;;;;35.90;22.10;;;;;;;4.44;86.81;96372.73;438875;1266;98675;-40
2023/03/08 23:36:31;;;;;;;40.40;23.80;;;;;;;4.58;86.87;96370.38;437599;1256;109392;-40
2023/03/08 23:46:39;;;;;;;33.80;20.00;;;;;;;4.68;86.88;96368.11;437715;1257;97913;-42
2023/03/08 23:56:45;;;;;;;42.30;24.40;;;;;;;4.66;86.84;96358.63;439007;1256;112182;-40
